sensor_id;sensor_type;location;lat;lon;timestamp;P1;durP1;ratioP1;P2;durP2;ratioP2
31390;SDS011;18022;45.492;11.548;2023-07-13T00:02:22;3.70;;;1.55;;
31390;SDS011;18022;45.492;11.548;2023-07-13T00:04:49;4.13;;;1.88;;
31390;SDS011;18022;45.492;11.548;2023-07-13T00:07:15;5.68;;;1.80;;
31390;SDS011;18022;45.492;11.548;2023-07-13T00:09:45;4.35;;;1.60;;
31390;SDS011;18022;45.492;11.548;2023-07-13T00:12:30;4.80;;;2.00;;
31390;SDS011;18022;45.492;11.548;2023-07-13T00:14:59;5.90;;;1.60;;
31390;SDS011;18022;45.492;11.548;2023-07-13T00:17:26;8.77;;;1.95;;
31390;SDS011;18022;45.492;11.548;2023-07-13T00:19:52;7.35;;;1.75;;
31390;SDS011;18022;45.492;11.548;2023-07-13T00:22:20;4.45;;;1.75;;
31390;SDS011;18022;45.492;11.548;2023-07-13T00:24:46;2.83;;;1.50;;
31390;SDS011;18022;45.492;11.548;2023-07-13T00:27:12;3.00;;;1.20;;
31390;SDS011;18022;45.492;11.548;2023-07-13T00:29:39;5.13;;;1.60;;
31390;SDS011;18022;45.492;11.548;2023-07-13T00:32:05;3.30;;;1.50;;
31390;SDS011;18022;45.492;11.548;2023-07-13T00:34:32;2.80;;;1.20;;
31390;SDS011;18022;45.492;11.548;2023-07-13T00:36:58;3.53;;;1.45;;
31390;SDS011;18022;45.492;11.548;2023-07-13T00:39:24;2.17;;;1.63;;
31390;SDS011;18022;45.492;11.548;2023-07-13T00:41:50;4.00;;;1.48;;
31390;SDS011;18022;45.492;11.548;2023-07-13T00:44:17;4.63;;;1.40;;
31390;SDS011;18022;45.492;11.548;2023-07-13T00:46:43;3.60;;;1.50;;
31390;SDS011;18022;45.492;11.548;2023-07-13T00:49:10;5.38;;;1.50;;
31390;SDS011;18022;45.492;11.548;2023-07-13T00:51:44;3.20;;;1.45;;
31390;SDS011;18022;45.492;11.548;2023-07-13T00:57:17;5.78;;;1.58;;
31390;SDS011;18022;45.492;11.548;2023-07-13T00:59:47;2.90;;;1.58;;
31390;SDS011;18022;45.492;11.548;2023-07-13T01:02:16;2.67;;;1.52;;
31390;SDS011;18022;45.492;11.548;2023-07-13T01:04:42;4.63;;;1.50;;
31390;SDS011;18022;45.492;11.548;2023-07-13T01:07:09;3.78;;;1.42;;
31390;SDS011;18022;45.492;11.548;2023-07-13T01:09:36;6.65;;;1.67;;
31390;SDS011;18022;45.492;11.548;2023-07-13T01:12:01;3.10;;;1.38;;
31390;SDS011;18022;45.492;11.548;2023-07-13T01:14:28;2.40;;;1.48;;
31390;SDS011;18022;45.492;11.548;2023-07-13T01:16:54;3.75;;;1.77;;
31390;SDS011;18022;45.492;11.548;2023-07-13T01:19:40;3.87;;;1.53;;
31390;SDS011;18022;45.492;11.548;2023-07-13T01:22:15;3.00;;;1.23;;
31390;SDS011;18022;45.492;11.548;2023-07-13T01:24:44;3.63;;;1.70;;
31390;SDS011;18022;45.492;11.548;2023-07-13T01:27:12;4.90;;;1.50;;
31390;SDS011;18022;45.492;11.548;2023-07-13T01:29:42;5.57;;;2.47;;
31390;SDS011;18022;45.492;11.548;2023-07-13T01:32:10;2.72;;;1.50;;
31390;SDS011;18022;45.492;11.548;2023-07-13T01:34:37;4.80;;;1.48;;
31390;SDS011;18022;45.492;11.548;2023-07-13T01:37:07;6.75;;;1.75;;
31390;SDS011;18022;45.492;11.548;2023-07-13T01:39:33;4.82;;;1.42;;
31390;SDS011;18022;45.492;11.548;2023-07-13T01:41:59;2.92;;;1.30;;
31390;SDS011;18022;45.492;11.548;2023-07-13T01:44:25;2.65;;;1.42;;
31390;SDS011;18022;45.492;11.548;2023-07-13T01:46:51;2.50;;;1.23;;
31390;SDS011;18022;45.492;11.548;2023-07-13T01:49:17;3.42;;;1.48;;
31390;SDS011;18022;45.492;11.548;2023-07-13T01:51:42;6.53;;;1.30;;
31390;SDS011;18022;45.492;11.548;2023-07-13T01:54:08;4.68;;;1.30;;
31390;SDS011;18022;45.492;11.548;2023-07-13T01:56:34;1.95;;;1.27;;
31390;SDS011;18022;45.492;11.548;2023-07-13T01:58:59;3.40;;;1.48;;
31390;SDS011;18022;45.492;11.548;2023-07-13T02:01:25;2.28;;;1.30;;
31390;SDS011;18022;45.492;11.548;2023-07-13T02:03:50;2.35;;;1.38;;
31390;SDS011;18022;45.492;11.548;2023-07-13T02:06:16;3.67;;;1.40;;
31390;SDS011;18022;45.492;11.548;2023-07-13T02:08:42;2.40;;;1.20;;
31390;SDS011;18022;45.492;11.548;2023-07-13T02:11:08;4.07;;;1.42;;
31390;SDS011;18022;45.492;11.548;2023-07-13T02:13:34;3.17;;;1.40;;
31390;SDS011;18022;45.492;11.548;2023-07-13T02:15:59;2.45;;;1.38;;
31390;SDS011;18022;45.492;11.548;2023-07-13T02:18:26;5.13;;;1.55;;
31390;SDS011;18022;45.492;11.548;2023-07-13T02:20:51;1.90;;;1.30;;
31390;SDS011;18022;45.492;11.548;2023-07-13T02:23:17;2.28;;;1.50;;
31390;SDS011;18022;45.492;11.548;2023-07-13T02:25:43;3.78;;;1.50;;
31390;SDS011;18022;45.492;11.548;2023-07-13T02:28:09;3.92;;;1.63;;
31390;SDS011;18022;45.492;11.548;2023-07-13T02:30:35;3.55;;;1.50;;
31390;SDS011;18022;45.492;11.548;2023-07-13T02:33:01;2.33;;;1.35;;
31390;SDS011;18022;45.492;11.548;2023-07-13T02:35:27;4.28;;;1.73;;
31390;SDS011;18022;45.492;11.548;2023-07-13T02:37:53;6.05;;;1.75;;
31390;SDS011;18022;45.492;11.548;2023-07-13T02:40:18;3.25;;;1.60;;
31390;SDS011;18022;45.492;11.548;2023-07-13T02:42:44;1.90;;;1.48;;
31390;SDS011;18022;45.492;11.548;2023-07-13T02:45:10;3.65;;;1.60;;
31390;SDS011;18022;45.492;11.548;2023-07-13T02:47:37;7.85;;;1.80;;
31390;SDS011;18022;45.492;11.548;2023-07-13T02:50:04;3.07;;;1.50;;
31390;SDS011;18022;45.492;11.548;2023-07-13T02:52:30;2.55;;;1.60;;
31390;SDS011;18022;45.492;11.548;2023-07-13T02:54:56;2.55;;;1.70;;
31390;SDS011;18022;45.492;11.548;2023-07-13T02:57:22;5.40;;;1.83;;
31390;SDS011;18022;45.492;11.548;2023-07-13T02:59:47;3.95;;;1.90;;
31390;SDS011;18022;45.492;11.548;2023-07-13T03:02:13;3.30;;;1.60;;
31390;SDS011;18022;45.492;11.548;2023-07-13T03:04:39;4.88;;;1.80;;
31390;SDS011;18022;45.492;11.548;2023-07-13T03:07:06;4.57;;;1.65;;
31390;SDS011;18022;45.492;11.548;2023-07-13T03:09:32;4.28;;;1.50;;
31390;SDS011;18022;45.492;11.548;2023-07-13T03:11:59;3.78;;;1.60;;
31390;SDS011;18022;45.492;11.548;2023-07-13T03:14:25;2.97;;;1.52;;
31390;SDS011;18022;45.492;11.548;2023-07-13T03:16:51;3.10;;;1.58;;
31390;SDS011;18022;45.492;11.548;2023-07-13T03:19:17;4.25;;;1.70;;
31390;SDS011;18022;45.492;11.548;2023-07-13T03:21:44;3.55;;;1.52;;
31390;SDS011;18022;45.492;11.548;2023-07-13T03:24:09;6.47;;;1.80;;
31390;SDS011;18022;45.492;11.548;2023-07-13T03:26:36;7.50;;;1.60;;
31390;SDS011;18022;45.492;11.548;2023-07-13T03:29:01;3.75;;;1.60;;
31390;SDS011;18022;45.492;11.548;2023-07-13T03:31:28;3.72;;;1.90;;
31390;SDS011;18022;45.492;11.548;2023-07-13T03:34:00;4.35;;;1.55;;
31390;SDS011;18022;45.492;11.548;2023-07-13T03:36:26;5.80;;;1.63;;
31390;SDS011;18022;45.492;11.548;2023-07-13T03:38:55;2.63;;;1.58;;
31390;SDS011;18022;45.492;11.548;2023-07-13T03:41:23;2.55;;;1.77;;
31390;SDS011;18022;45.492;11.548;2023-07-13T03:43:50;2.63;;;1.53;;
31390;SDS011;18022;45.492;11.548;2023-07-13T03:46:16;3.83;;;1.70;;
31390;SDS011;18022;45.492;11.548;2023-07-13T03:48:44;4.43;;;1.83;;
31390;SDS011;18022;45.492;11.548;2023-07-13T03:51:11;2.70;;;1.45;;
31390;SDS011;18022;45.492;11.548;2023-07-13T03:53:40;3.88;;;1.85;;
31390;SDS011;18022;45.492;11.548;2023-07-13T03:56:08;3.72;;;1.52;;
31390;SDS011;18022;45.492;11.548;2023-07-13T03:58:35;4.28;;;1.90;;
31390;SDS011;18022;45.492;11.548;2023-07-13T04:01:03;5.47;;;2.78;;
31390;SDS011;18022;45.492;11.548;2023-07-13T04:03:30;4.20;;;1.75;;
31390;SDS011;18022;45.492;11.548;2023-07-13T04:06:00;3.75;;;1.67;;
31390;SDS011;18022;45.492;11.548;2023-07-13T04:08:28;3.38;;;2.03;;
31390;SDS011;18022;45.492;11.548;2023-07-13T04:10:55;3.50;;;1.50;;
31390;SDS011;18022;45.492;11.548;2023-07-13T04:13:21;2.83;;;1.70;;
31390;SDS011;18022;45.492;11.548;2023-07-13T04:15:48;3.72;;;1.85;;
31390;SDS011;18022;45.492;11.548;2023-07-13T04:18:14;7.22;;;1.60;;
31390;SDS011;18022;45.492;11.548;2023-07-13T04:20:39;4.20;;;1.98;;
31390;SDS011;18022;45.492;11.548;2023-07-13T04:23:05;4.57;;;1.60;;
31390;SDS011;18022;45.492;11.548;2023-07-13T04:25:31;3.15;;;1.73;;
31390;SDS011;18022;45.492;11.548;2023-07-13T04:27:56;4.25;;;1.63;;
31390;SDS011;18022;45.492;11.548;2023-07-13T04:30:22;2.45;;;1.52;;
31390;SDS011;18022;45.492;11.548;2023-07-13T04:32:49;5.15;;;2.25;;
31390;SDS011;18022;45.492;11.548;2023-07-13T04:35:17;3.78;;;1.50;;
31390;SDS011;18022;45.492;11.548;2023-07-13T04:37:45;2.88;;;1.35;;
31390;SDS011;18022;45.492;11.548;2023-07-13T04:40:12;3.38;;;1.70;;
31390;SDS011;18022;45.492;11.548;2023-07-13T04:42:38;3.40;;;1.55;;
31390;SDS011;18022;45.492;11.548;2023-07-13T04:45:05;3.97;;;1.50;;
31390;SDS011;18022;45.492;11.548;2023-07-13T04:47:32;3.20;;;1.50;;
31390;SDS011;18022;45.492;11.548;2023-07-13T04:49:58;3.25;;;1.50;;
31390;SDS011;18022;45.492;11.548;2023-07-13T04:52:24;3.70;;;1.33;;
31390;SDS011;18022;45.492;11.548;2023-07-13T04:54:50;4.03;;;1.50;;
31390;SDS011;18022;45.492;11.548;2023-07-13T04:57:15;3.55;;;1.92;;
31390;SDS011;18022;45.492;11.548;2023-07-13T04:59:41;3.60;;;1.92;;
31390;SDS011;18022;45.492;11.548;2023-07-13T05:02:07;4.97;;;1.77;;
31390;SDS011;18022;45.492;11.548;2023-07-13T05:04:33;3.90;;;1.40;;
31390;SDS011;18022;45.492;11.548;2023-07-13T05:06:59;5.57;;;2.13;;
31390;SDS011;18022;45.492;11.548;2023-07-13T05:09:25;5.03;;;2.03;;
31390;SDS011;18022;45.492;11.548;2023-07-13T05:11:51;5.28;;;1.52;;
31390;SDS011;18022;45.492;11.548;2023-07-13T05:14:17;4.40;;;1.75;;
31390;SDS011;18022;45.492;11.548;2023-07-13T05:16:42;4.95;;;1.67;;
31390;SDS011;18022;45.492;11.548;2023-07-13T05:19:08;5.13;;;1.60;;
31390;SDS011;18022;45.492;11.548;2023-07-13T05:21:34;6.60;;;2.20;;
31390;SDS011;18022;45.492;11.548;2023-07-13T05:24:00;3.00;;;1.90;;
31390;SDS011;18022;45.492;11.548;2023-07-13T05:26:26;3.72;;;1.58;;
31390;SDS011;18022;45.492;11.548;2023-07-13T05:28:52;4.38;;;1.90;;
31390;SDS011;18022;45.492;11.548;2023-07-13T05:31:18;3.60;;;1.70;;
31390;SDS011;18022;45.492;11.548;2023-07-13T05:33:43;5.03;;;2.05;;
31390;SDS011;18022;45.492;11.548;2023-07-13T05:36:09;6.00;;;1.98;;
31390;SDS011;18022;45.492;11.548;2023-07-13T05:38:35;4.20;;;1.73;;
31390;SDS011;18022;45.492;11.548;2023-07-13T05:41:00;4.43;;;1.80;;
31390;SDS011;18022;45.492;11.548;2023-07-13T05:43:26;5.97;;;1.60;;
31390;SDS011;18022;45.492;11.548;2023-07-13T05:45:55;4.53;;;1.75;;
31390;SDS011;18022;45.492;11.548;2023-07-13T05:48:21;1.77;;;1.52;;
31390;SDS011;18022;45.492;11.548;2023-07-13T05:50:48;4.85;;;1.83;;
31390;SDS011;18022;45.492;11.548;2023-07-13T05:53:14;4.68;;;1.70;;
31390;SDS011;18022;45.492;11.548;2023-07-13T05:55:43;3.25;;;1.48;;
31390;SDS011;18022;45.492;11.548;2023-07-13T05:58:13;3.50;;;1.88;;
31390;SDS011;18022;45.492;11.548;2023-07-13T06:00:39;4.20;;;1.83;;
31390;SDS011;18022;45.492;11.548;2023-07-13T06:03:06;3.97;;;1.50;;
31390;SDS011;18022;45.492;11.548;2023-07-13T06:05:32;4.15;;;1.60;;
31390;SDS011;18022;45.492;11.548;2023-07-13T06:07:59;5.25;;;1.83;;
31390;SDS011;18022;45.492;11.548;2023-07-13T06:10:25;3.95;;;1.45;;
31390;SDS011;18022;45.492;11.548;2023-07-13T06:12:51;4.10;;;1.70;;
31390;SDS011;18022;45.492;11.548;2023-07-13T06:15:16;5.45;;;1.80;;
31390;SDS011;18022;45.492;11.548;2023-07-13T06:17:42;2.83;;;1.70;;
31390;SDS011;18022;45.492;11.548;2023-07-13T06:20:08;4.97;;;1.90;;
31390;SDS011;18022;45.492;11.548;2023-07-13T06:22:34;5.20;;;1.65;;
31390;SDS011;18022;45.492;11.548;2023-07-13T06:25:00;5.22;;;1.90;;
31390;SDS011;18022;45.492;11.548;2023-07-13T06:27:26;3.55;;;1.65;;
31390;SDS011;18022;45.492;11.548;2023-07-13T06:29:51;2.88;;;1.50;;
31390;SDS011;18022;45.492;11.548;2023-07-13T06:32:17;4.43;;;1.77;;
31390;SDS011;18022;45.492;11.548;2023-07-13T06:34:43;2.97;;;2.00;;
31390;SDS011;18022;45.492;11.548;2023-07-13T06:37:09;2.80;;;1.45;;
31390;SDS011;18022;45.492;11.548;2023-07-13T06:39:35;5.45;;;1.73;;
31390;SDS011;18022;45.492;11.548;2023-07-13T06:42:01;2.67;;;1.70;;
31390;SDS011;18022;45.492;11.548;2023-07-13T06:44:26;4.07;;;1.70;;
31390;SDS011;18022;45.492;11.548;2023-07-13T06:46:52;2.63;;;1.50;;
31390;SDS011;18022;45.492;11.548;2023-07-13T06:49:18;3.97;;;1.77;;
31390;SDS011;18022;45.492;11.548;2023-07-13T06:51:44;9.32;;;1.90;;
31390;SDS011;18022;45.492;11.548;2023-07-13T06:54:10;5.97;;;1.80;;
31390;SDS011;18022;45.492;11.548;2023-07-13T06:56:35;2.35;;;1.48;;
31390;SDS011;18022;45.492;11.548;2023-07-13T06:59:01;3.60;;;1.13;;
31390;SDS011;18022;45.492;11.548;2023-07-13T07:01:27;3.90;;;1.63;;
31390;SDS011;18022;45.492;11.548;2023-07-13T07:03:52;4.88;;;1.58;;
31390;SDS011;18022;45.492;11.548;2023-07-13T07:06:19;3.92;;;1.23;;
31390;SDS011;18022;45.492;11.548;2023-07-13T07:08:48;4.30;;;1.60;;
31390;SDS011;18022;45.492;11.548;2023-07-13T07:11:16;3.38;;;1.55;;
31390;SDS011;18022;45.492;11.548;2023-07-13T07:13:43;4.10;;;1.48;;
31390;SDS011;18022;45.492;11.548;2023-07-13T07:16:09;2.15;;;1.20;;
31390;SDS011;18022;45.492;11.548;2023-07-13T07:18:35;1.48;;;1.20;;
31390;SDS011;18022;45.492;11.548;2023-07-13T07:21:01;4.53;;;1.27;;
31390;SDS011;18022;45.492;11.548;2023-07-13T07:23:27;4.35;;;1.50;;
31390;SDS011;18022;45.492;11.548;2023-07-13T07:25:53;3.58;;;1.40;;
31390;SDS011;18022;45.492;11.548;2023-07-13T07:28:19;2.88;;;1.27;;
31390;SDS011;18022;45.492;11.548;2023-07-13T07:30:46;3.50;;;1.30;;
31390;SDS011;18022;45.492;11.548;2023-07-13T07:33:13;4.20;;;1.40;;
31390;SDS011;18022;45.492;11.548;2023-07-13T07:35:39;2.15;;;1.38;;
31390;SDS011;18022;45.492;11.548;2023-07-13T07:38:04;2.25;;;1.13;;
31390;SDS011;18022;45.492;11.548;2023-07-13T07:40:31;2.90;;;1.48;;
31390;SDS011;18022;45.492;11.548;2023-07-13T07:42:57;4.88;;;1.40;;
31390;SDS011;18022;45.492;11.548;2023-07-13T07:45:23;2.72;;;1.30;;
31390;SDS011;18022;45.492;11.548;2023-07-13T07:47:49;1.85;;;1.25;;
31390;SDS011;18022;45.492;11.548;2023-07-13T07:50:15;4.82;;;1.20;;
31390;SDS011;18022;45.492;11.548;2023-07-13T07:52:41;2.53;;;1.35;;
31390;SDS011;18022;45.492;11.548;2023-07-13T07:55:07;4.50;;;1.40;;
31390;SDS011;18022;45.492;11.548;2023-07-13T07:57:33;2.05;;;1.25;;
31390;SDS011;18022;45.492;11.548;2023-07-13T07:59:59;3.25;;;1.33;;
31390;SDS011;18022;45.492;11.548;2023-07-13T08:02:25;3.47;;;1.10;;
31390;SDS011;18022;45.492;11.548;2023-07-13T08:04:51;2.47;;;1.33;;
31390;SDS011;18022;45.492;11.548;2023-07-13T08:07:17;3.00;;;1.47;;
31390;SDS011;18022;45.492;11.548;2023-07-13T08:09:43;3.25;;;1.33;;
31390;SDS011;18022;45.492;11.548;2023-07-13T08:12:09;3.60;;;1.45;;
31390;SDS011;18022;45.492;11.548;2023-07-13T08:14:35;4.15;;;1.33;;
31390;SDS011;18022;45.492;11.548;2023-07-13T08:17:01;1.65;;;1.20;;
31390;SDS011;18022;45.492;11.548;2023-07-13T08:19:27;1.67;;;0.90;;
31390;SDS011;18022;45.492;11.548;2023-07-13T08:21:52;3.25;;;1.15;;
31390;SDS011;18022;45.492;11.548;2023-07-13T08:24:18;2.45;;;0.95;;
31390;SDS011;18022;45.492;11.548;2023-07-13T08:26:46;4.35;;;1.13;;
31390;SDS011;18022;45.492;11.548;2023-07-13T08:29:12;2.25;;;1.40;;
31390;SDS011;18022;45.492;11.548;2023-07-13T08:31:38;2.63;;;1.20;;
31390;SDS011;18022;45.492;11.548;2023-07-13T08:34:03;1.20;;;0.88;;
31390;SDS011;18022;45.492;11.548;2023-07-13T08:36:29;2.58;;;1.00;;
31390;SDS011;18022;45.492;11.548;2023-07-13T08:38:55;1.83;;;1.15;;
31390;SDS011;18022;45.492;11.548;2023-07-13T08:41:20;3.20;;;1.20;;
31390;SDS011;18022;45.492;11.548;2023-07-13T08:43:51;2.75;;;1.30;;
31390;SDS011;18022;45.492;11.548;2023-07-13T08:46:27;2.70;;;1.08;;
31390;SDS011;18022;45.492;11.548;2023-07-13T08:49:01;3.42;;;1.45;;
31390;SDS011;18022;45.492;11.548;2023-07-13T08:51:47;5.72;;;1.40;;
31390;SDS011;18022;45.492;11.548;2023-07-13T08:54:34;3.10;;;1.23;;
31390;SDS011;18022;45.492;11.548;2023-07-13T08:57:09;4.68;;;1.40;;
31390;SDS011;18022;45.492;11.548;2023-07-13T08:59:40;2.80;;;1.13;;
31390;SDS011;18022;45.492;11.548;2023-07-13T09:04:50;3.08;;;1.25;;
31390;SDS011;18022;45.492;11.548;2023-07-13T09:07:26;3.95;;;1.27;;
31390;SDS011;18022;45.492;11.548;2023-07-13T09:15:24;3.30;;;1.63;;
31390;SDS011;18022;45.492;11.548;2023-07-13T09:17:56;2.58;;;1.20;;
31390;SDS011;18022;45.492;11.548;2023-07-13T09:20:31;2.85;;;1.20;;
31390;SDS011;18022;45.492;11.548;2023-07-13T09:23:04;3.40;;;1.30;;
31390;SDS011;18022;45.492;11.548;2023-07-13T09:25:36;8.05;;;1.25;;
31390;SDS011;18022;45.492;11.548;2023-07-13T09:28:22;2.17;;;1.55;;
31390;SDS011;18022;45.492;11.548;2023-07-13T09:31:06;2.30;;;1.48;;
31390;SDS011;18022;45.492;11.548;2023-07-13T09:33:41;3.10;;;1.10;;
31390;SDS011;18022;45.492;11.548;2023-07-13T09:36:27;4.00;;;1.50;;
31390;SDS011;18022;45.492;11.548;2023-07-13T09:41:40;2.65;;;1.30;;
31390;SDS011;18022;45.492;11.548;2023-07-13T09:44:31;11.90;;;1.88;;
31390;SDS011;18022;45.492;11.548;2023-07-13T09:47:00;6.65;;;1.95;;
31390;SDS011;18022;45.492;11.548;2023-07-13T09:49:28;2.72;;;1.10;;
31390;SDS011;18022;45.492;11.548;2023-07-13T09:51:59;4.95;;;1.20;;
31390;SDS011;18022;45.492;11.548;2023-07-13T09:54:27;1.92;;;1.00;;
31390;SDS011;18022;45.492;11.548;2023-07-13T09:56:56;4.03;;;1.25;;
31390;SDS011;18022;45.492;11.548;2023-07-13T09:59:26;5.40;;;1.88;;
31390;SDS011;18022;45.492;11.548;2023-07-13T10:01:56;4.80;;;1.60;;
31390;SDS011;18022;45.492;11.548;2023-07-13T10:04:27;4.40;;;1.20;;
31390;SDS011;18022;45.492;11.548;2023-07-13T10:07:07;5.10;;;1.33;;
31390;SDS011;18022;45.492;11.548;2023-07-13T10:09:34;5.00;;;1.17;;
31390;SDS011;18022;45.492;11.548;2023-07-13T10:12:00;1.90;;;1.23;;
31390;SDS011;18022;45.492;11.548;2023-07-13T10:14:26;3.33;;;1.40;;
31390;SDS011;18022;45.492;11.548;2023-07-13T10:16:59;2.90;;;1.40;;
31390;SDS011;18022;45.492;11.548;2023-07-13T10:19:31;2.97;;;1.27;;
31390;SDS011;18022;45.492;11.548;2023-07-13T10:22:00;3.17;;;1.48;;
31390;SDS011;18022;45.492;11.548;2023-07-13T10:24:35;3.38;;;1.35;;
31390;SDS011;18022;45.492;11.548;2023-07-13T10:27:11;5.18;;;1.52;;
31390;SDS011;18022;45.492;11.548;2023-07-13T10:29:46;3.40;;;2.15;;
31390;SDS011;18022;45.492;11.548;2023-07-13T10:32:17;7.43;;;1.90;;
31390;SDS011;18022;45.492;11.548;2023-07-13T10:34:47;3.00;;;1.23;;
31390;SDS011;18022;45.492;11.548;2023-07-13T10:37:16;3.08;;;1.30;;
31390;SDS011;18022;45.492;11.548;2023-07-13T10:39:48;3.65;;;1.42;;
31390;SDS011;18022;45.492;11.548;2023-07-13T10:42:23;2.53;;;1.25;;
31390;SDS011;18022;45.492;11.548;2023-07-13T10:44:56;5.43;;;1.23;;
31390;SDS011;18022;45.492;11.548;2023-07-13T10:47:22;3.05;;;1.92;;
31390;SDS011;18022;45.492;11.548;2023-07-13T10:49:50;4.53;;;1.60;;
31390;SDS011;18022;45.492;11.548;2023-07-13T10:58:12;2.13;;;1.40;;
31390;SDS011;18022;45.492;11.548;2023-07-13T11:01:13;2.38;;;1.27;;
31390;SDS011;18022;45.492;11.548;2023-07-13T11:08:57;3.22;;;1.38;;
31390;SDS011;18022;45.492;11.548;2023-07-13T11:13:55;3.15;;;1.20;;
31390;SDS011;18022;45.492;11.548;2023-07-13T11:18:52;2.75;;;1.30;;
31390;SDS011;18022;45.492;11.548;2023-07-13T11:21:31;1.67;;;1.00;;
31390;SDS011;18022;45.492;11.548;2023-07-13T11:31:53;3.65;;;1.40;;
31390;SDS011;18022;45.492;11.548;2023-07-13T11:34:26;3.47;;;1.30;;
31390;SDS011;18022;45.492;11.548;2023-07-13T11:36:56;4.25;;;1.75;;
31390;SDS011;18022;45.492;11.548;2023-07-13T11:39:27;4.38;;;1.50;;
31390;SDS011;18022;45.492;11.548;2023-07-13T11:42:03;3.35;;;1.55;;
31390;SDS011;18022;45.492;11.548;2023-07-13T11:44:34;4.72;;;1.52;;
31390;SDS011;18022;45.492;11.548;2023-07-13T11:47:08;7.50;;;1.48;;
31390;SDS011;18022;45.492;11.548;2023-07-13T11:49:43;1.38;;;1.08;;
31390;SDS011;18022;45.492;11.548;2023-07-13T11:52:16;2.45;;;1.40;;
31390;SDS011;18022;45.492;11.548;2023-07-13T11:55:00;2.92;;;1.80;;
31390;SDS011;18022;45.492;11.548;2023-07-13T11:57:33;5.72;;;2.03;;
31390;SDS011;18022;45.492;11.548;2023-07-13T12:00:14;4.40;;;1.55;;
31390;SDS011;18022;45.492;11.548;2023-07-13T12:02:44;7.70;;;2.50;;
31390;SDS011;18022;45.492;11.548;2023-07-13T12:05:14;4.60;;;1.70;;
31390;SDS011;18022;45.492;11.548;2023-07-13T12:07:42;6.68;;;2.15;;
31390;SDS011;18022;45.492;11.548;2023-07-13T12:12:47;9.18;;;2.65;;
31390;SDS011;18022;45.492;11.548;2023-07-13T12:15:16;6.63;;;2.20;;
31390;SDS011;18022;45.492;11.548;2023-07-13T12:17:42;8.10;;;2.20;;
31390;SDS011;18022;45.492;11.548;2023-07-13T12:20:20;6.43;;;3.10;;
31390;SDS011;18022;45.492;11.548;2023-07-13T12:22:51;5.03;;;2.20;;
31390;SDS011;18022;45.492;11.548;2023-07-13T12:25:17;3.15;;;2.30;;
31390;SDS011;18022;45.492;11.548;2023-07-13T12:27:50;3.67;;;2.20;;
31390;SDS011;18022;45.492;11.548;2023-07-13T12:32:55;5.43;;;2.97;;
31390;SDS011;18022;45.492;11.548;2023-07-13T12:35:26;5.97;;;2.72;;
31390;SDS011;18022;45.492;11.548;2023-07-13T12:37:56;4.43;;;2.47;;
31390;SDS011;18022;45.492;11.548;2023-07-13T12:40:26;7.20;;;2.60;;
31390;SDS011;18022;45.492;11.548;2023-07-13T12:42:59;11.85;;;2.78;;
31390;SDS011;18022;45.492;11.548;2023-07-13T12:45:29;5.78;;;2.60;;
31390;SDS011;18022;45.492;11.548;2023-07-13T12:48:14;5.27;;;3.00;;
31390;SDS011;18022;45.492;11.548;2023-07-13T12:50:43;4.47;;;3.03;;
31390;SDS011;18022;45.492;11.548;2023-07-13T12:53:14;9.13;;;3.00;;
31390;SDS011;18022;45.492;11.548;2023-07-13T12:56:04;6.90;;;2.40;;
31390;SDS011;18022;45.492;11.548;2023-07-13T12:58:31;7.70;;;3.30;;
31390;SDS011;18022;45.492;11.548;2023-07-13T13:01:09;5.22;;;2.80;;
31390;SDS011;18022;45.492;11.548;2023-07-13T13:03:47;10.70;;;3.47;;
31390;SDS011;18022;45.492;11.548;2023-07-13T13:08:44;7.40;;;2.60;;
31390;SDS011;18022;45.492;11.548;2023-07-13T13:11:13;7.65;;;2.60;;
31390;SDS011;18022;45.492;11.548;2023-07-13T13:13:43;5.93;;;2.40;;
31390;SDS011;18022;45.492;11.548;2023-07-13T13:18:43;5.60;;;2.40;;
31390;SDS011;18022;45.492;11.548;2023-07-13T13:21:10;4.05;;;2.20;;
31390;SDS011;18022;45.492;11.548;2023-07-13T13:23:36;4.40;;;2.30;;
31390;SDS011;18022;45.492;11.548;2023-07-13T13:26:02;8.70;;;2.50;;
31390;SDS011;18022;45.492;11.548;2023-07-13T13:28:31;6.72;;;2.35;;
31390;SDS011;18022;45.492;11.548;2023-07-13T13:30:57;4.97;;;2.47;;
31390;SDS011;18022;45.492;11.548;2023-07-13T13:33:23;4.88;;;2.38;;
31390;SDS011;18022;45.492;11.548;2023-07-13T13:35:49;6.13;;;2.40;;
31390;SDS011;18022;45.492;11.548;2023-07-13T13:38:15;5.82;;;2.47;;
31390;SDS011;18022;45.492;11.548;2023-07-13T13:40:44;3.50;;;2.25;;
31390;SDS011;18022;45.492;11.548;2023-07-13T13:43:23;4.93;;;2.40;;
31390;SDS011;18022;45.492;11.548;2023-07-13T13:45:56;4.53;;;2.22;;
31390;SDS011;18022;45.492;11.548;2023-07-13T13:48:26;6.18;;;2.72;;
31390;SDS011;18022;45.492;11.548;2023-07-13T13:50:58;3.85;;;2.20;;
31390;SDS011;18022;45.492;11.548;2023-07-13T13:53:25;4.03;;;2.33;;
31390;SDS011;18022;45.492;11.548;2023-07-13T13:55:50;5.80;;;2.70;;
31390;SDS011;18022;45.492;11.548;2023-07-13T13:58:18;5.82;;;2.83;;
31390;SDS011;18022;45.492;11.548;2023-07-13T14:00:44;3.72;;;2.35;;
31390;SDS011;18022;45.492;11.548;2023-07-13T14:03:14;5.60;;;2.60;;
31390;SDS011;18022;45.492;11.548;2023-07-13T14:05:45;4.85;;;2.47;;
31390;SDS011;18022;45.492;11.548;2023-07-13T14:08:15;4.87;;;2.27;;
31390;SDS011;18022;45.492;11.548;2023-07-13T14:10:43;7.82;;;2.85;;
31390;SDS011;18022;45.492;11.548;2023-07-13T14:13:15;3.90;;;2.20;;
31390;SDS011;18022;45.492;11.548;2023-07-13T14:15:44;3.53;;;2.40;;
31390;SDS011;18022;45.492;11.548;2023-07-13T14:18:10;5.40;;;2.47;;
31390;SDS011;18022;45.492;11.548;2023-07-13T14:20:37;6.13;;;2.20;;
31390;SDS011;18022;45.492;11.548;2023-07-13T14:23:02;7.60;;;2.70;;
31390;SDS011;18022;45.492;11.548;2023-07-13T14:25:28;5.35;;;2.88;;
31390;SDS011;18022;45.492;11.548;2023-07-13T14:27:58;4.18;;;2.20;;
31390;SDS011;18022;45.492;11.548;2023-07-13T14:30:25;5.00;;;2.50;;
31390;SDS011;18022;45.492;11.548;2023-07-13T14:32:51;7.35;;;2.17;;
31390;SDS011;18022;45.492;11.548;2023-07-13T14:35:18;8.80;;;2.85;;
31390;SDS011;18022;45.492;11.548;2023-07-13T14:37:46;6.10;;;2.30;;
31390;SDS011;18022;45.492;11.548;2023-07-13T14:40:17;9.30;;;2.65;;
31390;SDS011;18022;45.492;11.548;2023-07-13T14:42:46;7.97;;;2.80;;
31390;SDS011;18022;45.492;11.548;2023-07-13T14:45:16;9.27;;;3.03;;
31390;SDS011;18022;45.492;11.548;2023-07-13T14:47:44;5.07;;;2.80;;
31390;SDS011;18022;45.492;11.548;2023-07-13T14:50:14;4.95;;;2.33;;
31390;SDS011;18022;45.492;11.548;2023-07-13T14:52:45;8.45;;;3.00;;
31390;SDS011;18022;45.492;11.548;2023-07-13T14:55:16;9.13;;;3.40;;
31390;SDS011;18022;45.492;11.548;2023-07-13T14:57:43;10.93;;;3.30;;
31390;SDS011;18022;45.492;11.548;2023-07-13T15:02:47;8.65;;;3.25;;
31390;SDS011;18022;45.492;11.548;2023-07-13T15:05:19;6.65;;;3.60;;
31390;SDS011;18022;45.492;11.548;2023-07-13T15:07:48;8.52;;;3.70;;
31390;SDS011;18022;45.492;11.548;2023-07-13T15:10:24;8.32;;;3.60;;
31390;SDS011;18022;45.492;11.548;2023-07-13T15:12:52;7.57;;;3.38;;
31390;SDS011;18022;45.492;11.548;2023-07-13T15:15:18;7.10;;;3.08;;
31390;SDS011;18022;45.492;11.548;2023-07-13T15:17:45;6.43;;;2.53;;
31390;SDS011;18022;45.492;11.548;2023-07-13T15:22:44;3.85;;;1.58;;
31390;SDS011;18022;45.492;11.548;2023-07-13T15:25:16;4.18;;;2.22;;
31390;SDS011;18022;45.492;11.548;2023-07-13T15:27:43;3.42;;;1.60;;
31390;SDS011;18022;45.492;11.548;2023-07-13T15:30:09;7.23;;;2.20;;
31390;SDS011;18022;45.492;11.548;2023-07-13T15:32:36;2.40;;;1.67;;
31390;SDS011;18022;45.492;11.548;2023-07-13T15:35:02;6.18;;;1.70;;